sensor_id;sensor_type;location;lat;lon;timestamp;P1;durP1;ratioP1;P2;durP2;ratioP2
44766;SDS011;30487;48.716;9.272;2023-03-21T00:02:17;5.47;;;2.42;;
44766;SDS011;30487;48.716;9.272;2023-03-21T00:04:42;4.88;;;2.30;;
44766;SDS011;30487;48.716;9.272;2023-03-21T00:07:08;4.72;;;2.40;;
44766;SDS011;30487;48.716;9.272;2023-03-21T00:09:33;6.45;;;2.47;;
44766;SDS011;30487;48.716;9.272;2023-03-21T00:11:59;6.25;;;2.60;;
44766;SDS011;30487;48.716;9.272;2023-03-21T00:14:25;3.90;;;2.17;;
44766;SDS011;30487;48.716;9.272;2023-03-21T00:16:55;7.95;;;2.60;;
44766;SDS011;30487;48.716;9.272;2023-03-21T00:19:21;4.03;;;2.15;;
44766;SDS011;30487;48.716;9.272;2023-03-21T00:21:50;5.28;;;2.50;;
44766;SDS011;30487;48.716;9.272;2023-03-21T00:24:16;6.55;;;2.53;;
44766;SDS011;30487;48.716;9.272;2023-03-21T00:26:42;5.10;;;2.20;;
44766;SDS011;30487;48.716;9.272;2023-03-21T00:29:08;4.90;;;2.35;;
44766;SDS011;30487;48.716;9.272;2023-03-21T00:31:34;4.97;;;2.28;;
44766;SDS011;30487;48.716;9.272;2023-03-21T00:33:59;5.40;;;2.38;;
44766;SDS011;30487;48.716;9.272;2023-03-21T00:36:25;5.28;;;2.35;;
44766;SDS011;30487;48.716;9.272;2023-03-21T00:38:51;5.88;;;2.28;;
44766;SDS011;30487;48.716;9.272;2023-03-21T00:41:17;4.15;;;2.25;;
44766;SDS011;30487;48.716;9.272;2023-03-21T00:43:43;3.45;;;2.03;;
44766;SDS011;30487;48.716;9.272;2023-03-21T00:46:08;4.35;;;2.20;;
44766;SDS011;30487;48.716;9.272;2023-03-21T00:48:34;4.18;;;2.08;;
44766;SDS011;30487;48.716;9.272;2023-03-21T00:51:00;3.55;;;2.15;;
44766;SDS011;30487;48.716;9.272;2023-03-21T00:53:26;4.82;;;2.42;;
44766;SDS011;30487;48.716;9.272;2023-03-21T00:55:52;4.18;;;2.20;;
44766;SDS011;30487;48.716;9.272;2023-03-21T00:58:18;4.72;;;2.22;;
44766;SDS011;30487;48.716;9.272;2023-03-21T01:00:44;4.05;;;2.20;;
44766;SDS011;30487;48.716;9.272;2023-03-21T01:03:13;5.47;;;2.00;;
44766;SDS011;30487;48.716;9.272;2023-03-21T01:05:40;4.10;;;2.05;;
44766;SDS011;30487;48.716;9.272;2023-03-21T01:08:27;5.45;;;2.33;;
44766;SDS011;30487;48.716;9.272;2023-03-21T01:10:53;5.28;;;2.10;;
44766;SDS011;30487;48.716;9.272;2023-03-21T01:13:21;4.07;;;2.30;;
44766;SDS011;30487;48.716;9.272;2023-03-21T01:15:49;3.65;;;1.83;;
44766;SDS011;30487;48.716;9.272;2023-03-21T01:18:17;4.95;;;2.15;;
44766;SDS011;30487;48.716;9.272;2023-03-21T01:20:45;3.53;;;2.03;;
44766;SDS011;30487;48.716;9.272;2023-03-21T01:23:12;5.47;;;2.35;;
44766;SDS011;30487;48.716;9.272;2023-03-21T01:25:39;3.08;;;1.80;;
44766;SDS011;30487;48.716;9.272;2023-03-21T01:28:05;4.65;;;2.35;;
44766;SDS011;30487;48.716;9.272;2023-03-21T01:30:31;3.63;;;1.90;;
44766;SDS011;30487;48.716;9.272;2023-03-21T01:32:57;3.85;;;1.95;;
44766;SDS011;30487;48.716;9.272;2023-03-21T01:35:23;4.30;;;2.20;;
44766;SDS011;30487;48.716;9.272;2023-03-21T01:37:48;5.70;;;1.83;;
44766;SDS011;30487;48.716;9.272;2023-03-21T01:40:16;3.90;;;2.17;;
44766;SDS011;30487;48.716;9.272;2023-03-21T01:42:43;3.65;;;1.90;;
44766;SDS011;30487;48.716;9.272;2023-03-21T01:48:12;4.90;;;2.08;;
44766;SDS011;30487;48.716;9.272;2023-03-21T01:50:39;5.25;;;1.95;;
44766;SDS011;30487;48.716;9.272;2023-03-21T01:53:05;4.70;;;1.90;;
44766;SDS011;30487;48.716;9.272;2023-03-21T01:55:31;4.15;;;2.28;;
44766;SDS011;30487;48.716;9.272;2023-03-21T01:57:58;3.88;;;2.40;;
44766;SDS011;30487;48.716;9.272;2023-03-21T02:00:25;5.32;;;2.53;;
44766;SDS011;30487;48.716;9.272;2023-03-21T02:02:53;6.60;;;2.47;;
44766;SDS011;30487;48.716;9.272;2023-03-21T02:05:28;4.47;;;2.30;;
44766;SDS011;30487;48.716;9.272;2023-03-21T02:08:00;4.97;;;2.65;;
44766;SDS011;30487;48.716;9.272;2023-03-21T02:10:25;5.03;;;2.67;;
44766;SDS011;30487;48.716;9.272;2023-03-21T02:12:53;5.82;;;2.97;;
44766;SDS011;30487;48.716;9.272;2023-03-21T02:15:22;5.38;;;2.72;;
44766;SDS011;30487;48.716;9.272;2023-03-21T02:17:55;5.43;;;3.00;;
44766;SDS011;30487;48.716;9.272;2023-03-21T02:20:38;6.20;;;3.13;;
44766;SDS011;30487;48.716;9.272;2023-03-21T02:37:31;5.88;;;2.80;;
44766;SDS011;30487;48.716;9.272;2023-03-21T02:40:06;4.50;;;2.92;;
44766;SDS011;30487;48.716;9.272;2023-03-21T02:42:57;5.13;;;2.90;;
44766;SDS011;30487;48.716;9.272;2023-03-21T02:45:52;6.50;;;2.83;;
44766;SDS011;30487;48.716;9.272;2023-03-21T02:48:23;6.43;;;2.72;;
44766;SDS011;30487;48.716;9.272;2023-03-21T02:50:55;7.20;;;3.20;;
44766;SDS011;30487;48.716;9.272;2023-03-21T02:53:25;5.40;;;2.75;;
44766;SDS011;30487;48.716;9.272;2023-03-21T02:55:55;5.72;;;2.53;;
44766;SDS011;30487;48.716;9.272;2023-03-21T02:58:23;5.55;;;2.50;;
44766;SDS011;30487;48.716;9.272;2023-03-21T03:00:52;4.72;;;2.55;;
44766;SDS011;30487;48.716;9.272;2023-03-21T03:03:20;5.43;;;2.67;;
44766;SDS011;30487;48.716;9.272;2023-03-21T03:05:47;6.22;;;2.60;;
44766;SDS011;30487;48.716;9.272;2023-03-21T03:11:27;7.13;;;3.03;;
44766;SDS011;30487;48.716;9.272;2023-03-21T03:14:02;7.45;;;2.78;;
44766;SDS011;30487;48.716;9.272;2023-03-21T03:19:33;3.92;;;2.30;;
44766;SDS011;30487;48.716;9.272;2023-03-21T03:22:07;4.50;;;2.67;;
44766;SDS011;30487;48.716;9.272;2023-03-21T03:24:38;3.90;;;2.42;;
44766;SDS011;30487;48.716;9.272;2023-03-21T03:27:15;6.00;;;3.15;;
44766;SDS011;30487;48.716;9.272;2023-03-21T03:29:44;4.88;;;2.63;;
44766;SDS011;30487;48.716;9.272;2023-03-21T03:32:16;5.40;;;2.60;;
44766;SDS011;30487;48.716;9.272;2023-03-21T03:34:52;6.07;;;2.80;;
44766;SDS011;30487;48.716;9.272;2023-03-21T03:37:20;5.70;;;2.72;;
44766;SDS011;30487;48.716;9.272;2023-03-21T03:45:29;6.82;;;2.50;;
44766;SDS011;30487;48.716;9.272;2023-03-21T03:48:06;4.50;;;2.65;;
44766;SDS011;30487;48.716;9.272;2023-03-21T03:51:01;6.10;;;2.40;;
44766;SDS011;30487;48.716;9.272;2023-03-21T03:55:57;5.15;;;2.38;;
44766;SDS011;30487;48.716;9.272;2023-03-21T03:58:24;5.55;;;2.50;;
44766;SDS011;30487;48.716;9.272;2023-03-21T04:00:51;4.43;;;2.47;;
44766;SDS011;30487;48.716;9.272;2023-03-21T04:03:19;4.38;;;2.42;;
44766;SDS011;30487;48.716;9.272;2023-03-21T04:05:45;5.72;;;2.45;;
44766;SDS011;30487;48.716;9.272;2023-03-21T04:08:13;4.60;;;2.50;;
44766;SDS011;30487;48.716;9.272;2023-03-21T04:10:40;3.90;;;2.35;;
44766;SDS011;30487;48.716;9.272;2023-03-21T04:13:07;6.03;;;2.80;;
44766;SDS011;30487;48.716;9.272;2023-03-21T04:15:33;5.22;;;2.25;;
44766;SDS011;30487;48.716;9.272;2023-03-21T04:17:59;4.50;;;2.50;;
44766;SDS011;30487;48.716;9.272;2023-03-21T04:20:25;5.65;;;2.50;;
44766;SDS011;30487;48.716;9.272;2023-03-21T04:22:50;6.72;;;2.55;;
44766;SDS011;30487;48.716;9.272;2023-03-21T04:25:18;4.60;;;2.40;;
44766;SDS011;30487;48.716;9.272;2023-03-21T04:27:44;5.93;;;2.55;;
44766;SDS011;30487;48.716;9.272;2023-03-21T04:30:11;5.22;;;2.40;;
44766;SDS011;30487;48.716;9.272;2023-03-21T04:32:37;4.22;;;2.38;;
44766;SDS011;30487;48.716;9.272;2023-03-21T04:35:06;4.65;;;2.60;;
44766;SDS011;30487;48.716;9.272;2023-03-21T04:37:33;5.38;;;2.75;;
44766;SDS011;30487;48.716;9.272;2023-03-21T04:40:00;3.92;;;2.28;;
44766;SDS011;30487;48.716;9.272;2023-03-21T04:42:30;5.57;;;2.60;;
44766;SDS011;30487;48.716;9.272;2023-03-21T04:44:57;6.90;;;2.75;;
44766;SDS011;30487;48.716;9.272;2023-03-21T04:47:22;5.30;;;2.70;;
44766;SDS011;30487;48.716;9.272;2023-03-21T04:49:48;4.38;;;2.65;;
44766;SDS011;30487;48.716;9.272;2023-03-21T04:52:14;5.05;;;2.65;;
44766;SDS011;30487;48.716;9.272;2023-03-21T04:54:40;6.90;;;2.83;;
44766;SDS011;30487;48.716;9.272;2023-03-21T04:57:06;5.10;;;2.85;;
44766;SDS011;30487;48.716;9.272;2023-03-21T04:59:32;5.82;;;3.00;;
44766;SDS011;30487;48.716;9.272;2023-03-21T05:01:58;7.00;;;2.83;;
44766;SDS011;30487;48.716;9.272;2023-03-21T05:04:24;5.93;;;2.92;;
44766;SDS011;30487;48.716;9.272;2023-03-21T05:06:51;5.05;;;2.90;;
44766;SDS011;30487;48.716;9.272;2023-03-21T05:09:17;6.78;;;3.00;;
44766;SDS011;30487;48.716;9.272;2023-03-21T05:11:43;6.55;;;3.60;;
44766;SDS011;30487;48.716;9.272;2023-03-21T05:14:10;7.65;;;3.15;;
44766;SDS011;30487;48.716;9.272;2023-03-21T05:16:40;11.30;;;3.08;;
44766;SDS011;30487;48.716;9.272;2023-03-21T05:19:12;8.20;;;3.40;;
44766;SDS011;30487;48.716;9.272;2023-03-21T05:21:38;7.82;;;3.15;;
44766;SDS011;30487;48.716;9.272;2023-03-21T05:24:12;6.45;;;3.00;;
44766;SDS011;30487;48.716;9.272;2023-03-21T05:26:40;11.05;;;3.60;;
44766;SDS011;30487;48.716;9.272;2023-03-21T05:29:07;6.18;;;3.17;;
44766;SDS011;30487;48.716;9.272;2023-03-21T05:31:33;5.05;;;2.75;;
44766;SDS011;30487;48.716;9.272;2023-03-21T05:34:00;4.85;;;2.67;;
44766;SDS011;30487;48.716;9.272;2023-03-21T05:36:25;6.75;;;3.10;;
44766;SDS011;30487;48.716;9.272;2023-03-21T05:38:51;7.50;;;3.00;;
44766;SDS011;30487;48.716;9.272;2023-03-21T05:41:17;6.90;;;3.15;;
44766;SDS011;30487;48.716;9.272;2023-03-21T05:43:43;4.60;;;2.55;;
44766;SDS011;30487;48.716;9.272;2023-03-21T05:46:09;5.38;;;3.03;;
44766;SDS011;30487;48.716;9.272;2023-03-21T05:48:35;4.93;;;2.67;;
44766;SDS011;30487;48.716;9.272;2023-03-21T05:51:01;5.20;;;2.90;;
44766;SDS011;30487;48.716;9.272;2023-03-21T05:53:27;5.30;;;2.70;;
44766;SDS011;30487;48.716;9.272;2023-03-21T05:55:53;6.03;;;2.72;;
44766;SDS011;30487;48.716;9.272;2023-03-21T05:58:19;7.32;;;2.88;;
44766;SDS011;30487;48.716;9.272;2023-03-21T06:00:45;7.55;;;3.08;;
44766;SDS011;30487;48.716;9.272;2023-03-21T06:03:10;5.38;;;2.70;;
44766;SDS011;30487;48.716;9.272;2023-03-21T06:05:36;5.88;;;2.97;;
44766;SDS011;30487;48.716;9.272;2023-03-21T06:08:01;4.50;;;2.83;;
44766;SDS011;30487;48.716;9.272;2023-03-21T06:10:27;5.85;;;2.55;;
44766;SDS011;30487;48.716;9.272;2023-03-21T06:12:53;5.38;;;2.90;;
44766;SDS011;30487;48.716;9.272;2023-03-21T06:15:18;7.05;;;2.70;;
44766;SDS011;30487;48.716;9.272;2023-03-21T06:17:44;7.25;;;2.80;;
44766;SDS011;30487;48.716;9.272;2023-03-21T06:20:10;4.47;;;2.45;;
44766;SDS011;30487;48.716;9.272;2023-03-21T06:22:36;5.85;;;2.70;;
44766;SDS011;30487;48.716;9.272;2023-03-21T06:25:02;7.18;;;2.85;;
44766;SDS011;30487;48.716;9.272;2023-03-21T06:27:28;7.13;;;2.65;;
44766;SDS011;30487;48.716;9.272;2023-03-21T06:29:54;6.30;;;2.63;;
44766;SDS011;30487;48.716;9.272;2023-03-21T06:32:22;4.22;;;2.35;;
44766;SDS011;30487;48.716;9.272;2023-03-21T06:34:47;4.18;;;2.42;;
44766;SDS011;30487;48.716;9.272;2023-03-21T06:37:13;4.00;;;2.38;;
44766;SDS011;30487;48.716;9.272;2023-03-21T06:39:39;4.78;;;2.35;;
44766;SDS011;30487;48.716;9.272;2023-03-21T06:42:04;7.88;;;2.70;;
44766;SDS011;30487;48.716;9.272;2023-03-21T06:44:30;5.57;;;2.72;;
44766;SDS011;30487;48.716;9.272;2023-03-21T06:46:56;5.15;;;2.40;;
44766;SDS011;30487;48.716;9.272;2023-03-21T06:49:21;6.20;;;2.70;;
44766;SDS011;30487;48.716;9.272;2023-03-21T06:51:47;7.78;;;2.50;;
44766;SDS011;30487;48.716;9.272;2023-03-21T06:54:13;4.35;;;2.40;;
44766;SDS011;30487;48.716;9.272;2023-03-21T06:56:41;5.80;;;2.25;;
44766;SDS011;30487;48.716;9.272;2023-03-21T06:59:07;6.38;;;2.70;;
44766;SDS011;30487;48.716;9.272;2023-03-21T07:01:33;6.03;;;2.47;;
44766;SDS011;30487;48.716;9.272;2023-03-21T07:03:59;6.55;;;2.65;;
44766;SDS011;30487;48.716;9.272;2023-03-21T07:06:25;7.93;;;3.15;;
44766;SDS011;30487;48.716;9.272;2023-03-21T07:08:51;5.18;;;3.22;;
44766;SDS011;30487;48.716;9.272;2023-03-21T07:11:17;6.93;;;2.80;;
44766;SDS011;30487;48.716;9.272;2023-03-21T07:13:43;5.50;;;2.97;;
44766;SDS011;30487;48.716;9.272;2023-03-21T07:16:09;5.85;;;2.70;;
44766;SDS011;30487;48.716;9.272;2023-03-21T07:18:35;9.25;;;2.90;;
44766;SDS011;30487;48.716;9.272;2023-03-21T07:21:02;8.90;;;2.60;;
44766;SDS011;30487;48.716;9.272;2023-03-21T07:23:28;6.60;;;2.65;;
44766;SDS011;30487;48.716;9.272;2023-03-21T07:25:53;5.07;;;2.58;;
44766;SDS011;30487;48.716;9.272;2023-03-21T07:28:20;6.80;;;2.97;;
44766;SDS011;30487;48.716;9.272;2023-03-21T07:30:50;4.40;;;2.42;;
44766;SDS011;30487;48.716;9.272;2023-03-21T07:33:17;9.30;;;3.00;;
44766;SDS011;30487;48.716;9.272;2023-03-21T07:35:43;5.32;;;2.42;;
44766;SDS011;30487;48.716;9.272;2023-03-21T07:38:08;4.78;;;2.53;;
44766;SDS011;30487;48.716;9.272;2023-03-21T07:40:34;3.95;;;2.55;;
44766;SDS011;30487;48.716;9.272;2023-03-21T07:43:00;4.22;;;2.50;;
44766;SDS011;30487;48.716;9.272;2023-03-21T07:45:25;6.97;;;2.83;;
44766;SDS011;30487;48.716;9.272;2023-03-21T07:47:51;6.68;;;2.72;;
44766;SDS011;30487;48.716;9.272;2023-03-21T07:50:18;4.60;;;2.60;;
44766;SDS011;30487;48.716;9.272;2023-03-21T07:52:45;7.22;;;2.50;;
44766;SDS011;30487;48.716;9.272;2023-03-21T07:55:11;5.30;;;2.60;;
44766;SDS011;30487;48.716;9.272;2023-03-21T07:57:36;6.00;;;2.60;;
44766;SDS011;30487;48.716;9.272;2023-03-21T08:00:03;4.07;;;2.40;;
44766;SDS011;30487;48.716;9.272;2023-03-21T08:02:30;5.38;;;2.70;;
44766;SDS011;30487;48.716;9.272;2023-03-21T08:04:55;4.55;;;2.90;;
44766;SDS011;30487;48.716;9.272;2023-03-21T08:07:21;7.05;;;2.28;;
44766;SDS011;30487;48.716;9.272;2023-03-21T08:09:47;4.55;;;2.55;;
44766;SDS011;30487;48.716;9.272;2023-03-21T08:12:12;5.20;;;2.60;;
44766;SDS011;30487;48.716;9.272;2023-03-21T08:14:38;5.38;;;2.40;;
44766;SDS011;30487;48.716;9.272;2023-03-21T08:17:04;6.80;;;2.78;;
44766;SDS011;30487;48.716;9.272;2023-03-21T08:19:30;7.70;;;2.75;;
44766;SDS011;30487;48.716;9.272;2023-03-21T08:21:56;4.65;;;2.58;;
44766;SDS011;30487;48.716;9.272;2023-03-21T08:24:24;5.03;;;2.30;;
44766;SDS011;30487;48.716;9.272;2023-03-21T08:26:50;4.85;;;2.28;;
44766;SDS011;30487;48.716;9.272;2023-03-21T08:29:16;4.65;;;2.17;;
44766;SDS011;30487;48.716;9.272;2023-03-21T08:31:42;5.00;;;2.20;;
44766;SDS011;30487;48.716;9.272;2023-03-21T08:34:07;4.28;;;2.13;;
44766;SDS011;30487;48.716;9.272;2023-03-21T08:36:34;4.03;;;2.10;;
44766;SDS011;30487;48.716;9.272;2023-03-21T08:39:01;4.07;;;2.55;;
44766;SDS011;30487;48.716;9.272;2023-03-21T08:41:33;4.72;;;2.13;;
44766;SDS011;30487;48.716;9.272;2023-03-21T08:43:59;3.30;;;1.80;;
44766;SDS011;30487;48.716;9.272;2023-03-21T08:46:25;3.00;;;2.00;;
44766;SDS011;30487;48.716;9.272;2023-03-21T08:48:51;5.95;;;2.20;;
44766;SDS011;30487;48.716;9.272;2023-03-21T08:51:17;2.83;;;1.77;;
44766;SDS011;30487;48.716;9.272;2023-03-21T08:53:43;3.17;;;1.60;;
44766;SDS011;30487;48.716;9.272;2023-03-21T08:56:09;5.03;;;2.22;;
44766;SDS011;30487;48.716;9.272;2023-03-21T08:58:35;4.20;;;2.03;;
44766;SDS011;30487;48.716;9.272;2023-03-21T09:01:01;2.80;;;1.60;;
44766;SDS011;30487;48.716;9.272;2023-03-21T09:03:28;3.50;;;1.90;;
44766;SDS011;30487;48.716;9.272;2023-03-21T09:05:54;5.45;;;2.10;;
44766;SDS011;30487;48.716;9.272;2023-03-21T09:08:20;3.92;;;1.98;;
44766;SDS011;30487;48.716;9.272;2023-03-21T09:10:47;5.50;;;2.20;;
44766;SDS011;30487;48.716;9.272;2023-03-21T09:13:22;3.53;;;1.92;;
44766;SDS011;30487;48.716;9.272;2023-03-21T09:15:48;4.82;;;2.20;;
44766;SDS011;30487;48.716;9.272;2023-03-21T09:18:14;3.65;;;2.00;;
44766;SDS011;30487;48.716;9.272;2023-03-21T09:20:42;3.80;;;1.90;;
44766;SDS011;30487;48.716;9.272;2023-03-21T09:23:11;4.78;;;1.80;;
44766;SDS011;30487;48.716;9.272;2023-03-21T09:25:37;4.18;;;2.20;;
44766;SDS011;30487;48.716;9.272;2023-03-21T09:28:03;7.53;;;2.00;;
44766;SDS011;30487;48.716;9.272;2023-03-21T09:30:30;3.88;;;2.08;;
44766;SDS011;30487;48.716;9.272;2023-03-21T09:32:58;4.60;;;1.63;;
44766;SDS011;30487;48.716;9.272;2023-03-21T09:35:24;6.00;;;1.75;;
44766;SDS011;30487;48.716;9.272;2023-03-21T09:37:51;5.28;;;1.60;;
44766;SDS011;30487;48.716;9.272;2023-03-21T09:40:18;3.92;;;2.08;;
44766;SDS011;30487;48.716;9.272;2023-03-21T09:45:23;5.70;;;2.17;;
44766;SDS011;30487;48.716;9.272;2023-03-21T09:48:00;2.90;;;1.70;;
44766;SDS011;30487;48.716;9.272;2023-03-21T09:50:31;3.20;;;1.73;;
44766;SDS011;30487;48.716;9.272;2023-03-21T09:53:02;3.78;;;1.90;;
44766;SDS011;30487;48.716;9.272;2023-03-21T09:55:42;4.32;;;1.95;;
44766;SDS011;30487;48.716;9.272;2023-03-21T10:00:56;3.05;;;1.60;;
44766;SDS011;30487;48.716;9.272;2023-03-21T10:03:31;2.72;;;1.60;;
44766;SDS011;30487;48.716;9.272;2023-03-21T10:06:08;3.40;;;1.70;;
44766;SDS011;30487;48.716;9.272;2023-03-21T10:08:39;3.28;;;1.80;;
44766;SDS011;30487;48.716;9.272;2023-03-21T10:11:18;4.55;;;1.70;;
44766;SDS011;30487;48.716;9.272;2023-03-21T10:13:58;5.32;;;1.70;;
44766;SDS011;30487;48.716;9.272;2023-03-21T10:19:22;2.90;;;1.80;;
44766;SDS011;30487;48.716;9.272;2023-03-21T10:21:49;3.35;;;1.50;;
44766;SDS011;30487;48.716;9.272;2023-03-21T10:24:16;3.00;;;1.75;;
44766;SDS011;30487;48.716;9.272;2023-03-21T10:26:46;4.45;;;2.00;;
44766;SDS011;30487;48.716;9.272;2023-03-21T10:29:15;2.50;;;1.50;;
44766;SDS011;30487;48.716;9.272;2023-03-21T10:31:42;2.40;;;1.67;;
44766;SDS011;30487;48.716;9.272;2023-03-21T10:37:01;2.55;;;1.63;;
44766;SDS011;30487;48.716;9.272;2023-03-21T10:41:57;2.40;;;1.70;;
44766;SDS011;30487;48.716;9.272;2023-03-21T10:44:27;2.40;;;1.65;;
44766;SDS011;30487;48.716;9.272;2023-03-21T10:47:05;3.17;;;1.30;;
44766;SDS011;30487;48.716;9.272;2023-03-21T10:49:32;3.90;;;1.60;;
44766;SDS011;30487;48.716;9.272;2023-03-21T10:52:01;2.40;;;1.40;;
44766;SDS011;30487;48.716;9.272;2023-03-21T10:54:30;1.90;;;1.30;;
44766;SDS011;30487;48.716;9.272;2023-03-21T10:59:42;4.68;;;1.42;;
44766;SDS011;30487;48.716;9.272;2023-03-21T11:02:15;2.95;;;1.10;;
44766;SDS011;30487;48.716;9.272;2023-03-21T11:04:45;4.55;;;1.58;;
44766;SDS011;30487;48.716;9.272;2023-03-21T11:07:12;2.17;;;1.10;;
44766;SDS011;30487;48.716;9.272;2023-03-21T11:09:49;3.20;;;1.42;;
44766;SDS011;30487;48.716;9.272;2023-03-21T11:12:30;1.80;;;1.00;;
44766;SDS011;30487;48.716;9.272;2023-03-21T11:17:45;2.03;;;1.00;;
44766;SDS011;30487;48.716;9.272;2023-03-21T11:20:16;1.77;;;1.15;;
44766;SDS011;30487;48.716;9.272;2023-03-21T11:22:45;2.00;;;1.10;;
44766;SDS011;30487;48.716;9.272;2023-03-21T11:25:20;2.28;;;1.10;;
44766;SDS011;30487;48.716;9.272;2023-03-21T11:27:52;2.25;;;1.10;;
44766;SDS011;30487;48.716;9.272;2023-03-21T11:30:23;3.05;;;1.10;;
44766;SDS011;30487;48.716;9.272;2023-03-21T11:32:54;1.87;;;1.03;;
44766;SDS011;30487;48.716;9.272;2023-03-21T11:35:27;1.60;;;0.90;;
44766;SDS011;30487;48.716;9.272;2023-03-21T11:37:56;2.08;;;0.90;;
44766;SDS011;30487;48.716;9.272;2023-03-21T11:42:56;1.80;;;0.80;;
44766;SDS011;30487;48.716;9.272;2023-03-21T11:45:23;2.00;;;0.70;;
44766;SDS011;30487;48.716;9.272;2023-03-21T11:47:52;1.25;;;0.90;;
44766;SDS011;30487;48.716;9.272;2023-03-21T11:52:50;1.38;;;0.80;;
44766;SDS011;30487;48.716;9.272;2023-03-21T12:00:50;2.38;;;0.95;;
44766;SDS011;30487;48.716;9.272;2023-03-21T12:06:35;1.88;;;0.82;;
44766;SDS011;30487;48.716;9.272;2023-03-21T12:12:11;1.77;;;1.00;;
44766;SDS011;30487;48.716;9.272;2023-03-21T12:18:09;3.33;;;0.90;;
44766;SDS011;30487;48.716;9.272;2023-03-21T12:20:50;2.75;;;1.17;;
44766;SDS011;30487;48.716;9.272;2023-03-21T12:34:27;3.45;;;0.93;;
44766;SDS011;30487;48.716;9.272;2023-03-21T12:39:54;4.82;;;1.17;;
44766;SDS011;30487;48.716;9.272;2023-03-21T12:42:40;2.47;;;1.10;;
44766;SDS011;30487;48.716;9.272;2023-03-21T12:47:40;2.88;;;1.08;;
44766;SDS011;30487;48.716;9.272;2023-03-21T12:50:14;2.30;;;1.10;;
44766;SDS011;30487;48.716;9.272;2023-03-21T12:52:51;3.08;;;0.80;;
44766;SDS011;30487;48.716;9.272;2023-03-21T13:00:20;1.77;;;0.98;;
44766;SDS011;30487;48.716;9.272;2023-03-21T13:02:54;3.13;;;0.98;;
44766;SDS011;30487;48.716;9.272;2023-03-21T13:08:03;1.90;;;1.00;;
44766;SDS011;30487;48.716;9.272;2023-03-21T13:10:37;3.30;;;1.10;;
44766;SDS011;30487;48.716;9.272;2023-03-21T13:21:14;2.97;;;1.17;;
44766;SDS011;30487;48.716;9.272;2023-03-21T13:26:48;2.75;;;1.27;;
44766;SDS011;30487;48.716;9.272;2023-03-21T13:29:40;2.22;;;0.88;;
44766;SDS011;30487;48.716;9.272;2023-03-21T13:34:56;2.58;;;0.93;;
44766;SDS011;30487;48.716;9.272;2023-03-21T13:37:41;1.88;;;1.00;;
44766;SDS011;30487;48.716;9.272;2023-03-21T13:40:23;3.25;;;1.20;;
44766;SDS011;30487;48.716;9.272;2023-03-21T13:42:58;1.77;;;1.10;;
44766;SDS011;30487;48.716;9.272;2023-03-21T13:45:43;2.17;;;1.15;;
44766;SDS011;30487;48.716;9.272;2023-03-21T13:48:24;1.75;;;1.00;;
44766;SDS011;30487;48.716;9.272;2023-03-21T13:50:59;3.85;;;1.02;;
44766;SDS011;30487;48.716;9.272;2023-03-21T13:53:35;2.15;;;1.05;;
44766;SDS011;30487;48.716;9.272;2023-03-21T13:56:07;1.58;;;0.90;;
44766;SDS011;30487;48.716;9.272;2023-03-21T13:59:01;2.50;;;0.80;;
44766;SDS011;30487;48.716;9.272;2023-03-21T14:01:30;2.38;;;0.82;;
44766;SDS011;30487;48.716;9.272;2023-03-21T14:04:21;4.05;;;0.90;;
44766;SDS011;30487;48.716;9.272;2023-03-21T14:07:01;2.88;;;0.90;;
44766;SDS011;30487;48.716;9.272;2023-03-21T14:09:35;2.05;;;0.80;;
44766;SDS011;30487;48.716;9.272;2023-03-21T14:12:12;1.48;;;0.90;;
44766;SDS011;30487;48.716;9.272;2023-03-21T14:14:43;1.98;;;0.90;;
44766;SDS011;30487;48.716;9.272;2023-03-21T14:17:12;4.47;;;0.85;;
44766;SDS011;30487;48.716;9.272;2023-03-21T14:19:50;2.55;;;0.70;;
44766;SDS011;30487;48.716;9.272;2023-03-21T14:22:22;0.98;;;0.57;;
44766;SDS011;30487;48.716;9.272;2023-03-21T14:24:58;1.48;;;0.70;;
44766;SDS011;30487;48.716;9.272;2023-03-21T14:27:27;2.92;;;0.80;;
44766;SDS011;30487;48.716;9.272;2023-03-21T14:29:55;1.35;;;0.70;;
44766;SDS011;30487;48.716;9.272;2023-03-21T14:32:24;0.50;;;0.47;;
44766;SDS011;30487;48.716;9.272;2023-03-21T14:34:51;1.58;;;0.57;;
44766;SDS011;30487;48.716;9.272;2023-03-21T14:37:52;0.98;;;0.60;;
44766;SDS011;30487;48.716;9.272;2023-03-21T14:40:22;1.73;;;0.70;;
44766;SDS011;30487;48.716;9.272;2023-03-21T14:42:50;4.75;;;0.68;;
44766;SDS011;30487;48.716;9.272;2023-03-21T14:45:22;1.55;;;0.65;;
44766;SDS011;30487;48.716;9.272;2023-03-21T14:47:53;2.03;;;0.80;;
44766;SDS011;30487;48.716;9.272;2023-03-21T14:50:19;1.67;;;0.75;;
44766;SDS011;30487;48.716;9.272;2023-03-21T14:52:48;1.38;;;0.65;;
44766;SDS011;30487;48.716;9.272;2023-03-21T14:55:17;2.67;;;0.80;;
44766;SDS011;30487;48.716;9.272;2023-03-21T14:57:43;2.28;;;0.80;;
44766;SDS011;30487;48.716;9.272;2023-03-21T15:00:13;1.90;;;0.80;;
44766;SDS011;30487;48.716;9.272;2023-03-21T15:02:50;1.90;;;1.02;;
44766;SDS011;30487;48.716;9.272;2023-03-21T15:05:24;3.58;;;0.88;;
44766;SDS011;30487;48.716;9.272;2023-03-21T15:07:55;1.92;;;1.17;;
44766;SDS011;30487;48.716;9.272;2023-03-21T15:10:24;2.65;;;0.90;;
44766;SDS011;30487;48.716;9.272;2023-03-21T15:12:52;2.40;;;1.20;;
44766;SDS011;30487;48.716;9.272;2023-03-21T15:15:20;1.48;;;0.90;;
44766;SDS011;30487;48.716;9.272;2023-03-21T15:17:48;2.38;;;0.70;;
44766;SDS011;30487;48.716;9.272;2023-03-21T15:20:16;1.67;;;0.88;;
44766;SDS011;30487;48.716;9.272;2023-03-21T15:22:44;1.80;;;1.00;;
44766;SDS011;30487;48.716;9.272;2023-03-21T15:25:17;4.68;;;1.52;;
44766;SDS011;30487;48.716;9.272;2023-03-21T15:27:46;8.38;;;1.52;;
44766;SDS011;30487;48.716;9.272;2023-03-21T15:30:24;4.20;;;1.63;;
44766;SDS011;30487;48.716;9.272;2023-03-21T15:32:52;4.38;;;1.85;;
44766;SDS011;30487;48.716;9.272;2023-03-21T15:35:40;4.70;;;2.13;;
44766;SDS011;30487;48.716;9.272;2023-03-21T15:38:19;3.80;;;1.90;;
44766;SDS011;30487;48.716;9.272;2023-03-21T15:40:45;5.88;;;2.17;;
44766;SDS011;30487;48.716;9.272;2023-03-21T15:45:44;4.22;;;2.03;;
44766;SDS011;30487;48.716;9.272;2023-03-21T15:48:12;4.32;;;2.10;;
44766;SDS011;30487;48.716;9.272;2023-03-21T15:50:39;7.93;;;2.70;;
44766;SDS011;30487;48.716;9.272;2023-03-21T15:53:10;6.97;;;2.10;;
44766;SDS011;30487;48.716;9.272;2023-03-21T15:55:43;4.00;;;1.80;;
44766;SDS011;30487;48.716;9.272;2023-03-21T15:58:14;5.55;;;1.65;;
44766;SDS011;30487;48.716;9.272;2023-03-21T16:00:46;6.47;;;1.90;;
44766;SDS011;30487;48.716;9.272;2023-03-21T16:03:17;5.85;;;1.98;;
44766;SDS011;30487;48.716;9.272;2023-03-21T16:06:06;4.55;;;1.85;;
44766;SDS011;30487;48.716;9.272;2023-03-21T16:09:22;5.18;;;2.03;;
44766;SDS011;30487;48.716;9.272;2023-03-21T16:14:06;4.68;;;2.00;;
44766;SDS011;30487;48.716;9.272;2023-03-21T16:16:32;4.85;;;1.95;;
44766;SDS011;30487;48.716;9.272;2023-03-21T16:18:58;7.70;;;2.28;;
44766;SDS011;30487;48.716;9.272;2023-03-21T16:21:26;6.15;;;1.92;;
44766;SDS011;30487;48.716;9.272;2023-03-21T16:23:54;3.80;;;1.70;;
44766;SDS011;30487;48.716;9.272;2023-03-21T16:26:24;5.10;;;1.83;;
44766;SDS011;30487;48.716;9.272;2023-03-21T16:28:51;4.10;;;1.70;;
44766;SDS011;30487;48.716;9.272;2023-03-21T16:31:19;5.35;;;1.90;;
44766;SDS011;30487;48.716;9.272;2023-03-21T16:33:49;5.10;;;1.83;;
44766;SDS011;30487;48.716;9.272;2023-03-21T16:36:16;7.20;;;1.60;;
44766;SDS011;30487;48.716;9.272;2023-03-21T16:38:44;6.18;;;2.08;;
44766;SDS011;30487;48.716;9.272;2023-03-21T16:41:12;6.10;;;1.90;;
44766;SDS011;30487;48.716;9.272;2023-03-21T16:43:38;4.90;;;1.80;;
44766;SDS011;30487;48.716;9.272;2023-03-21T16:46:17;5.95;;;1.92;;
44766;SDS011;30487;48.716;9.272;2023-03-21T16:48:45;4.63;;;1.90;;
44766;SDS011;30487;48.716;9.272;2023-03-21T16:51:13;5.22;;;1.80;;
44766;SDS011;30487;48.716;9.272;2023-03-21T16:53:54;4.60;;;1.70;;
44766;SDS011;30487;48.716;9.272;2023-03-21T16:56:25;5.82;;;2.03;;